Time;durP1;ratioP1;P1;durP2;ratioP2;P2;SDS_P1;SDS_P2;PMS_P1;PMS_P2;Temp;Humidity;BMP_temperature;BMP_pressure;BME280_temperature;BME280_humidity;BME280_pressure;Samples;Min_cycle;Max_cycle;Signal;HPM_P1;HPM_P2
2022/03/12 00:00:38;;;;;;;;;;;9.80;77.70;;;;;;5030127;28;20386;-80
2022/03/12 00:03:04;;;;;;;;;;;8.40;77.50;;;;;;5027344;28;20439;-81
2022/03/12 00:05:30;;;;;;;;;;;8.30;78.10;;;;;;5028436;28;20028;-80
2022/03/12 00:07:55;;;;;;;;;;;8.40;77.20;;;;;;5028942;28;20406;-80
2022/03/12 00:10:22;;;;;;;;;;;8.40;77.40;;;;;;5028278;28;20027;-80
2022/03/12 00:12:47;;;;;;;;;;;8.40;77.40;;;;;;5028633;28;19935;-79
2022/03/12 00:15:14;;;;;;;;;;;8.50;76.40;;;;;;5029057;28;19929;-80
2022/03/12 00:17:43;;;;;;;;;;;8.50;76.60;;;;;;5043263;28;19940;-80
2022/03/12 00:20:12;;;;;;;;;;;8.00;75.70;;;;;;5030145;28;20011;-80
2022/03/12 00:22:43;;;;;;;;;;;8.40;76.00;;;;;;5038338;28;19936;-80
2022/03/12 00:25:10;;;;;;;;;;;8.30;76.70;;;;;;5038506;28;19925;-79
2022/03/12 00:27:39;;;;;;;;;;;8.00;75.10;;;;;;5037432;28;19925;-79
2022/03/12 00:30:04;;;;;;;;;;;8.60;73.80;;;;;;5037825;28;19924;-80
2022/03/12 00:32:30;;;;;;;;;;;8.40;75.40;;;;;;5038063;28;19925;-79
2022/03/12 00:34:55;;;;;;;;;;;8.40;75.60;;;;;;5037655;28;19959;-79
2022/03/12 00:37:21;;;;;;;;;;;8.40;76.10;;;;;;5038505;28;20326;-79
2022/03/12 00:39:47;;;;;;;;;;;8.30;76.40;;;;;;5039828;28;19929;-79
2022/03/12 00:42:13;;;;;;;;;;;9.80;76.40;;;;;;5045439;28;19982;-79
2022/03/12 00:44:39;;;;;;;;;;;8.30;76.50;;;;;;5035156;28;19928;-79
2022/03/12 00:47:04;;;;;;;;;;;8.30;76.40;;;;;;5032755;28;19931;-80
2022/03/12 00:49:30;;;;;;;;;;;8.30;76.30;;;;;;5046741;28;19931;-79
2022/03/12 00:51:55;;;;;;;;;;;8.20;77.10;;;;;;5047501;28;19925;-79
2022/03/12 00:54:21;;;;;;;;;;;8.20;76.70;;;;;;5046103;28;19978;-79
2022/03/12 00:56:47;;;;;;;;;;;8.20;76.20;;;;;;5036063;28;20666;-79
2022/03/12 00:59:13;;;;;;;;;;;9.50;77.70;;;;;;5044143;28;19975;-79
2022/03/12 01:01:39;;;;;;;;;;;8.10;77.20;;;;;;5030808;28;20306;-79
2022/03/12 01:04:04;;;;;;;;;;;8.20;76.00;;;;;;5032654;28;19931;-80
2022/03/12 01:06:30;;;;;;;;;;;8.20;75.40;;;;;;5036859;28;19924;-79
2022/03/12 01:08:56;;;;;;;;;;;8.20;74.60;;;;;;5037164;28;19936;-79
2022/03/12 01:11:21;;;;;;;;;;;8.20;75.60;;;;;;5038453;28;19935;-79
2022/03/12 01:13:47;;;;;;;;;;;8.30;75.30;;;;;;5037066;28;19925;-78
2022/03/12 01:16:14;;;;;;;;;;;8.20;74.80;;;;;;5036999;28;19928;-79
2022/03/12 01:18:39;;;;;;;;;;;8.20;75.50;;;;;;5038597;28;20291;-79
2022/03/12 01:21:09;;;;;;;;;;;8.20;75.10;;;;;;5036317;28;19925;-79
2022/03/12 01:23:35;;;;;;;;;;;8.20;75.60;;;;;;5037119;28;19932;-79
2022/03/12 01:26:00;;;;;;;;;;;7.80;75.90;;;;;;5038773;28;19925;-79
2022/03/12 01:28:26;;;;;;;;;;;8.10;77.10;;;;;;5042219;28;19970;-78
2022/03/12 01:30:54;;;;;;;;;;;8.70;77.70;;;;;;5033891;28;20766;-79
2022/03/12 01:33:20;;;;;;;;;;;8.00;77.50;;;;;;5049189;28;20460;-79
2022/03/12 01:35:45;;;;;;;;;;;8.00;78.30;;;;;;5042048;28;19925;-79
2022/03/12 01:38:11;;;;;;;;;;;8.20;78.20;;;;;;5041102;28;20347;-79
2022/03/12 01:40:37;;;;;;;;;;;7.90;78.60;;;;;;5034858;28;19924;-79
2022/03/12 01:43:04;;;;;;;;;;;7.90;79.10;;;;;;5038833;28;19929;-79
2022/03/12 01:45:29;;;;;;;;;;;7.90;78.00;;;;;;5036545;28;19936;-79
2022/03/12 01:47:56;;;;;;;;;;;7.90;78.60;;;;;;5043500;28;19940;-80
2022/03/12 01:50:23;;;;;;;;;;;9.30;80.50;;;;;;5043182;28;20626;-78
2022/03/12 01:52:49;;;;;;;;;;;8.00;78.00;;;;;;5050809;28;20516;-79
2022/03/12 01:55:15;;;;;;;;;;;7.90;79.50;;;;;;5034252;28;19932;-80
2022/03/12 01:57:41;;;;;;;;;;;9.20;80.20;;;;;;5043291;28;19966;-80
2022/03/12 02:00:20;;;;;;;;;;;7.80;80.10;;;;;;5039636;28;20288;-80
2022/03/12 02:02:48;;;;;;;;;;;7.70;81.40;;;;;;5030683;28;20019;-80
2022/03/12 02:05:13;;;;;;;;;;;9.60;83.00;;;;;;5050005;28;20386;-80
2022/03/12 02:07:39;;;;;;;;;;;7.80;81.90;;;;;;5044157;28;19932;-79
2022/03/12 02:10:06;;;;;;;;;;;7.70;83.00;;;;;;5038662;28;20003;-79
2022/03/12 02:12:32;;;;;;;;;;;7.70;82.80;;;;;;5036243;28;19925;-79
2022/03/12 02:15:00;;;;;;;;;;;7.60;84.30;;;;;;5048191;28;19925;-79
2022/03/12 02:17:25;;;;;;;;;;;9.00;85.50;;;;;;5044784;28;19936;-80
2022/03/12 02:19:51;;;;;;;;;;;7.60;84.10;;;;;;5039383;28;19924;-79
2022/03/12 02:22:19;;;;;;;;;;;7.60;83.70;;;;;;5038155;28;19925;-80
2022/03/12 02:24:45;;;;;;;;;;;7.60;84.00;;;;;;5045909;28;19936;-79
2022/03/12 02:27:11;;;;;;;;;;;7.80;84.40;;;;;;5034540;28;19924;-80
2022/03/12 02:29:37;;;;;;;;;;;8.20;83.30;;;;;;5050396;28;20402;-80
2022/03/12 02:32:09;;;;;;;;;;;7.60;84.30;;;;;;5039606;28;20403;-79
2022/03/12 02:34:41;;;;;;;;;;;7.60;83.80;;;;;;5032253;28;19925;-80
2022/03/12 02:37:06;;;;;;;;;;;7.50;83.80;;;;;;5048917;28;20298;-80
2022/03/12 02:39:37;;;;;;;;;;;7.50;83.70;;;;;;5043867;28;20023;-80
2022/03/12 02:42:04;;;;;;;;;;;7.60;83.90;;;;;;5037561;28;19929;-80
2022/03/12 02:44:29;;;;;;;;;;;7.50;83.50;;;;;;5036542;28;20018;-80
2022/03/12 02:47:11;;;;;;;;;;;7.50;83.10;;;;;;5046971;28;19972;-80
2022/03/12 02:49:37;;;;;;;;;;;7.70;83.00;;;;;;5042357;28;19961;-80
2022/03/12 02:52:03;;;;;;;;;;;7.70;82.30;;;;;;5030469;28;19929;-78
2022/03/12 02:54:29;;;;;;;;;;;7.70;83.10;;;;;;5030368;28;19936;-79
2022/03/12 02:56:55;;;;;;;;;;;7.60;83.40;;;;;;5030128;28;19931;-79
2022/03/12 02:59:20;;;;;;;;;;;7.70;81.50;;;;;;5029497;28;19971;-79
2022/03/12 03:01:47;;;;;;;;;;;7.70;82.00;;;;;;5029990;28;20023;-79
2022/03/12 03:04:12;;;;;;;;;;;7.70;82.30;;;;;;5046238;28;19932;-79
2022/03/12 03:06:38;;;;;;;;;;;7.70;82.50;;;;;;5049139;28;19924;-78
2022/03/12 03:09:04;;;;;;;;;;;7.70;83.60;;;;;;5049492;28;19924;-79
2022/03/12 03:11:36;;;;;;;;;;;7.10;83.10;;;;;;5049808;28;20009;-78
2022/03/12 03:14:01;;;;;;;;;;;7.80;82.70;;;;;;5049389;28;20375;-78
2022/03/12 03:16:28;;;;;;;;;;;7.70;82.80;;;;;;5049265;28;20017;-79
2022/03/12 03:18:54;;;;;;;;;;;8.80;83.50;;;;;;5048119;28;19987;-79
2022/03/12 03:21:20;;;;;;;;;;;7.70;83.80;;;;;;5048973;28;20010;-79
2022/03/12 03:23:46;;;;;;;;;;;7.70;84.70;;;;;;5048301;28;19921;-78
2022/03/12 03:26:13;;;;;;;;;;;7.70;85.50;;;;;;5049423;28;19924;-80
2022/03/12 03:28:39;;;;;;;;;;;7.70;85.80;;;;;;5048944;28;20315;-78
2022/03/12 03:31:05;;;;;;;;;;;8.00;86.60;;;;;;5049172;28;19925;-79
2022/03/12 03:33:31;;;;;;;;;;;8.00;86.50;;;;;;5040077;28;20369;-79
2022/03/12 03:35:56;;;;;;;;;;;9.10;88.30;;;;;;5028975;28;19960;-79
2022/03/12 03:38:22;;;;;;;;;;;7.80;88.90;;;;;;5028904;28;19925;-79
2022/03/12 03:40:49;;;;;;;;;;;7.80;88.80;;;;;;5029650;28;19971;-79
2022/03/12 03:43:17;;;;;;;;;;;8.00;87.60;;;;;;5028545;28;19921;-80
2022/03/12 03:45:44;;;;;;;;;;;7.90;88.50;;;;;;5029282;28;19929;-80
2022/03/12 03:48:10;;;;;;;;;;;8.00;87.30;;;;;;5032652;28;19928;-79
2022/03/12 03:50:36;;;;;;;;;;;8.00;87.50;;;;;;5032887;28;20364;-79
2022/03/12 03:53:03;;;;;;;;;;;8.00;88.00;;;;;;5047118;28;19975;-80
2022/03/12 03:55:30;;;;;;;;;;;8.10;88.60;;;;;;5052865;28;19924;-80
2022/03/12 03:57:56;;;;;;;;;;;8.10;88.10;;;;;;5045964;28;19925;-79
2022/03/12 04:00:22;;;;;;;;;;;9.00;90.80;;;;;;5052391;28;20344;-80
2022/03/12 04:02:48;;;;;;;;;;;8.30;92.00;;;;;;5052532;28;19928;-80
2022/03/12 04:05:14;;;;;;;;;;;7.80;93.60;;;;;;5052525;28;19927;-79
2022/03/12 04:07:39;;;;;;;;;;;8.00;95.00;;;;;;5052450;28;19921;-80
2022/03/12 04:10:05;;;;;;;;;;;7.90;96.00;;;;;;5051935;28;19921;-80
2022/03/12 04:12:31;;;;;;;;;;;7.70;97.20;;;;;;5052866;28;19928;-79
2022/03/12 04:14:58;;;;;;;;;;;7.50;98.60;;;;;;5052947;28;19920;-80
2022/03/12 04:17:23;;;;;;;;;;;7.40;99.60;;;;;;5051960;28;20649;-80
2022/03/12 04:19:49;;;;;;;;;;;7.40;99.80;;;;;;5052722;28;19921;-80
2022/03/12 04:22:16;;;;;;;;;;;8.70;99.90;;;;;;5034880;28;19921;-80
2022/03/12 04:24:42;;;;;;;;;;;7.20;99.90;;;;;;5033351;28;20287;-80
2022/03/12 04:27:08;;;;;;;;;;;7.20;99.90;;;;;;5032506;28;20007;-81
2022/03/12 04:29:33;;;;;;;;;;;7.80;99.90;;;;;;5032932;28;20007;-81
2022/03/12 04:31:59;;;;;;;;;;;7.00;99.90;;;;;;5032047;28;20339;-80
2022/03/12 04:34:24;;;;;;;;;;;8.40;99.90;;;;;;5031201;28;19975;-82
2022/03/12 04:36:50;;;;;;;;;;;6.80;99.90;;;;;;5032900;28;19921;-81
2022/03/12 04:39:15;;;;;;;;;;;6.90;99.90;;;;;;5033249;28;19921;-81
2022/03/12 04:41:41;;;;;;;;;;;6.90;99.90;;;;;;5032685;28;19921;-80
2022/03/12 04:44:07;;;;;;;;;;;7.00;99.90;;;;;;5032252;28;19921;-80
2022/03/12 04:46:37;;;;;;;;;;;6.90;99.90;;;;;;5032171;28;19978;-80
2022/03/12 04:49:03;;;;;;;;;;;6.80;99.90;;;;;;5032591;28;19975;-80
2022/03/12 04:51:29;;;;;;;;;;;7.00;99.90;;;;;;5032088;28;19921;-80
2022/03/12 04:53:55;;;;;;;;;;;6.90;99.90;;;;;;5033758;28;19928;-80
2022/03/12 04:56:22;;;;;;;;;;;6.90;99.90;;;;;;5032322;28;19924;-80
2022/03/12 04:58:48;;;;;;;;;;;7.00;99.90;;;;;;5032026;28;20836;-80
2022/03/12 05:01:16;;;;;;;;;;;7.00;99.90;;;;;;5043898;28;20011;-80
2022/03/12 05:03:43;;;;;;;;;;;7.00;99.90;;;;;;5050489;28;19928;-80
2022/03/12 05:06:09;;;;;;;;;;;7.00;99.90;;;;;;5035014;28;19928;-80
2022/03/12 05:08:36;;;;;;;;;;;7.00;99.90;;;;;;5036280;28;19928;-80
2022/03/12 05:11:02;;;;;;;;;;;7.00;99.90;;;;;;5036482;28;19921;-80
2022/03/12 05:13:27;;;;;;;;;;;8.40;99.90;;;;;;5034458;28;19927;-80
2022/03/12 05:15:55;;;;;;;;;;;6.90;99.90;;;;;;5053107;28;20015;-80
2022/03/12 05:18:22;;;;;;;;;;;6.90;99.90;;;;;;5055999;28;19921;-80
2022/03/12 05:20:48;;;;;;;;;;;7.00;99.90;;;;;;5055926;28;20367;-80
2022/03/12 05:23:14;;;;;;;;;;;6.90;99.90;;;;;;5055760;28;19924;-81
2022/03/12 05:25:41;;;;;;;;;;;6.80;99.90;;;;;;5055010;28;19921;-82
2022/03/12 05:28:08;;;;;;;;;;;6.90;99.90;;;;;;5054701;28;20422;-82
2022/03/12 05:30:34;;;;;;;;;;;6.90;99.90;;;;;;5054061;28;19925;-80
2022/03/12 05:33:00;;;;;;;;;;;7.00;99.90;;;;;;5054242;28;19924;-80
2022/03/12 05:35:25;;;;;;;;;;;6.90;99.90;;;;;;5054871;28;19921;-81
2022/03/12 05:37:51;;;;;;;;;;;6.80;99.90;;;;;;5055636;28;19921;-81
2022/03/12 05:40:23;;;;;;;;;;;6.80;99.90;;;;;;5055436;28;19920;-81
2022/03/12 05:42:49;;;;;;;;;;;6.70;99.90;;;;;;5055162;28;19920;-81
2022/03/12 05:45:17;;;;;;;;;;;6.70;99.90;;;;;;5054337;28;20398;-80
2022/03/12 05:47:43;;;;;;;;;;;7.00;99.90;;;;;;5054982;28;19931;-80
2022/03/12 05:50:10;;;;;;;;;;;7.30;99.90;;;;;;5055053;28;19921;-81
2022/03/12 05:52:37;;;;;;;;;;;6.70;99.90;;;;;;5055194;28;20037;-79
2022/03/12 05:55:05;;;;;;;;;;;6.60;99.90;;;;;;5054859;28;19928;-80
2022/03/12 05:57:31;;;;;;;;;;;6.60;99.90;;;;;;5054890;28;19924;-80
2022/03/12 05:59:57;;;;;;;;;;;6.50;99.90;;;;;;5053052;28;20664;-80
2022/03/12 06:02:22;;;;;;;;;;;6.40;99.90;;;;;;5054184;28;20015;-80
2022/03/12 06:04:48;;;;;;;;;;;7.20;99.90;;;;;;5053766;28;19960;-80
2022/03/12 06:07:15;;;;;;;;;;;6.20;99.90;;;;;;5054521;28;19920;-80
2022/03/12 06:09:40;;;;;;;;;;;6.10;99.90;;;;;;5054434;28;19967;-80
2022/03/12 06:12:13;;;;;;;;;;;6.00;99.90;;;;;;5052927;28;19925;-80
2022/03/12 06:14:39;;;;;;;;;;;6.00;99.90;;;;;;5055001;28;20303;-80
2022/03/12 06:17:04;;;;;;;;;;;7.20;99.90;;;;;;5053100;28;20284;-79
2022/03/12 06:19:30;;;;;;;;;;;6.50;99.90;;;;;;5054829;28;19927;-80
2022/03/12 06:21:57;;;;;;;;;;;6.10;99.90;;;;;;5041402;28;19921;-80
2022/03/12 06:24:22;;;;;;;;;;;6.00;99.90;;;;;;5033762;28;20287;-80
2022/03/12 06:26:48;;;;;;;;;;;7.00;99.90;;;;;;5034993;28;20019;-80
2022/03/12 06:29:13;;;;;;;;;;;7.50;99.90;;;;;;5034507;28;19925;-79
2022/03/12 06:31:40;;;;;;;;;;;5.90;99.90;;;;;;5033101;28;20292;-80
2022/03/12 06:34:06;;;;;;;;;;;5.80;99.90;;;;;;5034097;28;19928;-80
2022/03/12 06:36:31;;;;;;;;;;;5.90;99.90;;;;;;5035627;28;19916;-80
2022/03/12 06:38:57;;;;;;;;;;;5.90;99.90;;;;;;5034109;28;20299;-81
2022/03/12 06:41:23;;;;;;;;;;;6.30;99.90;;;;;;5034208;28;20250;-81
2022/03/12 06:43:50;;;;;;;;;;;7.10;99.90;;;;;;5032932;28;19921;-81
2022/03/12 06:46:16;;;;;;;;;;;5.80;99.90;;;;;;5033716;28;19925;-82
2022/03/12 06:48:42;;;;;;;;;;;6.00;99.90;;;;;;5034368;28;20360;-81
2022/03/12 06:51:08;;;;;;;;;;;5.60;99.90;;;;;;5033082;28;19920;-81
2022/03/12 06:53:34;;;;;;;;;;;6.10;99.90;;;;;;5034409;28;19925;-81
2022/03/12 06:56:00;;;;;;;;;;;6.80;99.90;;;;;;5033168;28;19917;-80
2022/03/12 06:58:26;;;;;;;;;;;6.10;99.90;;;;;;5033615;28;20280;-80
2022/03/12 07:00:51;;;;;;;;;;;6.20;99.90;;;;;;5032925;28;19956;-80
2022/03/12 07:03:17;;;;;;;;;;;6.40;99.90;;;;;;5033831;28;19917;-81
2022/03/12 07:05:42;;;;;;;;;;;6.50;99.90;;;;;;5031851;28;19991;-80
2022/03/12 07:08:08;;;;;;;;;;;6.60;99.90;;;;;;5034739;28;19944;-79
2022/03/12 07:10:33;;;;;;;;;;;6.70;99.90;;;;;;5033951;28;19920;-80
2022/03/12 07:12:59;;;;;;;;;;;6.70;99.90;;;;;;5033416;28;20459;-79
2022/03/12 07:15:25;;;;;;;;;;;6.80;99.90;;;;;;5032121;28;19968;-80
2022/03/12 07:17:51;;;;;;;;;;;6.80;99.90;;;;;;5034972;28;19921;-79
2022/03/12 07:20:17;;;;;;;;;;;7.00;99.90;;;;;;5032921;28;19921;-80
2022/03/12 07:22:43;;;;;;;;;;;7.50;99.90;;;;;;5033626;28;19975;-80
2022/03/12 07:25:09;;;;;;;;;;;7.10;99.90;;;;;;5042465;28;19925;-80
2022/03/12 07:27:34;;;;;;;;;;;7.20;99.90;;;;;;5046672;28;20269;-81
2022/03/12 07:30:00;;;;;;;;;;;7.20;99.90;;;;;;5041544;28;19929;-81
2022/03/12 07:32:29;;;;;;;;;;;7.30;99.90;;;;;;5040543;28;19966;-80
2022/03/12 07:34:55;;;;;;;;;;;7.50;99.90;;;;;;5040638;28;19928;-80
2022/03/12 07:37:21;;;;;;;;;;;7.60;99.90;;;;;;5044319;28;19920;-80
2022/03/12 07:39:50;;;;;;;;;;;7.70;99.90;;;;;;5048523;28;19921;-81
2022/03/12 07:42:15;;;;;;;;;;;7.70;99.90;;;;;;5051920;28;20035;-81
2022/03/12 07:44:41;;;;;;;;;;;9.40;99.90;;;;;;5052263;28;20007;-82
2022/03/12 07:47:07;;;;;;;;;;;8.10;99.90;;;;;;5052987;28;19928;-82
2022/03/12 07:49:34;;;;;;;;;;;8.10;99.90;;;;;;5052699;28;19926;-81
2022/03/12 07:52:00;;;;;;;;;;;9.50;99.90;;;;;;5052770;28;20410;-80
2022/03/12 07:54:25;;;;;;;;;;;8.50;99.90;;;;;;5052286;28;19920;-80
2022/03/12 07:56:51;;;;;;;;;;;9.00;99.90;;;;;;5050008;28;19928;-82
2022/03/12 07:59:21;;;;;;;;;;;9.50;99.90;;;;;;5043411;28;19920;-83
2022/03/12 08:01:47;;;;;;;;;;;11.60;99.90;;;;;;5053958;28;19975;-81
2022/03/12 08:04:13;;;;;;;;;;;10.60;98.90;;;;;;5048618;28;19965;-82
2022/03/12 08:06:43;;;;;;;;;;;11.20;98.10;;;;;;5050166;28;19921;-80
2022/03/12 08:09:09;;;;;;;;;;;11.70;97.20;;;;;;5051060;28;19921;-75
2022/03/12 08:11:38;;;;;;;;;;;12.10;95.90;;;;;;5051397;28;19974;-77
2022/03/12 08:14:15;;;;;;;;;;;13.40;95.30;;;;;;5048929;28;19931;-75
2022/03/12 08:16:59;;;;;;;;;;;12.90;93.60;;;;;;5033606;28;19921;-75
2022/03/12 08:19:31;;;;;;;;;;;14.30;92.70;;;;;;5050291;28;19967;-75
2022/03/12 08:21:59;;;;;;;;;;;13.00;93.60;;;;;;5047261;28;20287;-78
2022/03/12 08:24:24;;;;;;;;;;;12.80;93.70;;;;;;5031868;28;20020;-78
2022/03/12 08:26:50;;;;;;;;;;;12.80;94.30;;;;;;5031077;28;20027;-72
2022/03/12 08:29:17;;;;;;;;;;;12.70;93.80;;;;;;5032072;28;19979;-75
2022/03/12 08:31:43;;;;;;;;;;;13.20;95.50;;;;;;5047685;28;19924;-75
2022/03/12 08:34:10;;;;;;;;;;;12.50;95.20;;;;;;5052073;28;19921;-72
2022/03/12 08:36:36;;;;;;;;;;;12.40;96.00;;;;;;5052170;28;19917;-74
2022/03/12 08:39:02;;;;;;;;;;;12.60;95.70;;;;;;5052871;28;19966;-77
2022/03/12 08:41:28;;;;;;;;;;;12.80;95.20;;;;;;5055890;28;20430;-74
2022/03/12 08:43:53;;;;;;;;;;;12.80;95.40;;;;;;5055596;28;19928;-76
2022/03/12 08:46:19;;;;;;;;;;;12.80;95.70;;;;;;5051269;28;19956;-77
2022/03/12 08:48:51;;;;;;;;;;;13.50;96.30;;;;;;5056714;28;19929;-73
2022/03/12 08:51:17;;;;;;;;;;;13.30;96.00;;;;;;5053928;28;19971;-78
2022/03/12 08:53:43;;;;;;;;;;;12.90;96.50;;;;;;5056243;28;19932;-86
2022/03/12 08:56:09;;;;;;;;;;;12.90;97.00;;;;;;5055582;28;19917;-81
2022/03/12 08:58:36;;;;;;;;;;;13.90;97.00;;;;;;5052064;28;20015;-80
2022/03/12 09:01:06;;;;;;;;;;;13.30;96.70;;;;;;5046647;28;20394;-77
2022/03/12 09:03:33;;;;;;;;;;;13.20;97.30;;;;;;5056085;28;20394;-76
2022/03/12 09:05:58;;;;;;;;;;;13.30;97.40;;;;;;5054943;28;19921;-85
2022/03/12 09:08:24;;;;;;;;;;;13.40;97.10;;;;;;5054664;28;19924;-80
2022/03/12 09:10:53;;;;;;;;;;;13.40;98.20;;;;;;5055028;28;19978;-78
2022/03/12 09:13:19;;;;;;;;;;;13.30;98.30;;;;;;5053877;28;20279;-78
2022/03/12 09:15:45;;;;;;;;;;;13.20;98.60;;;;;;5055451;28;19920;-75
2022/03/12 09:18:10;;;;;;;;;;;13.10;99.30;;;;;;5054776;28;20261;-75
2022/03/12 09:20:47;;;;;;;;;;;12.90;99.60;;;;;;5055302;28;20367;-72
2022/03/12 09:23:13;;;;;;;;;;;12.90;99.70;;;;;;5037524;28;20342;-72
2022/03/12 09:25:44;;;;;;;;;;;12.40;99.90;;;;;;5055464;28;20375;-74
2022/03/12 09:28:17;;;;;;;;;;;12.40;99.90;;;;;;5051471;28;19964;-75
2022/03/12 09:31:01;;;;;;;;;;;12.60;99.90;;;;;;5038115;28;19920;-74
2022/03/12 09:33:32;;;;;;;;;;;13.80;99.90;;;;;;5051896;28;19990;-74
2022/03/12 09:36:02;;;;;;;;;;;13.40;99.50;;;;;;5055494;28;20008;-74
2022/03/12 09:38:37;;;;;;;;;;;13.80;99.10;;;;;;5052755;28;19932;-74
2022/03/12 09:41:04;;;;;;;;;;;14.00;99.00;;;;;;5054833;28;19921;-76
2022/03/12 09:43:29;;;;;;;;;;;14.40;98.80;;;;;;5055485;28;19920;-76
2022/03/12 09:45:56;;;;;;;;;;;14.80;98.40;;;;;;5053972;28;19924;-77
2022/03/12 09:48:22;;;;;;;;;;;15.00;98.40;;;;;;5052491;28;19924;-77
2022/03/12 09:51:03;;;;;;;;;;;15.60;98.90;;;;;;5054986;28;19921;-77
2022/03/12 09:53:29;;;;;;;;;;;14.80;99.30;;;;;;5054476;28;19967;-77
2022/03/12 09:55:57;;;;;;;;;;;15.20;99.10;;;;;;5052521;28;19928;-74
2022/03/12 09:58:22;;;;;;;;;;;15.60;98.40;;;;;;5053903;28;19924;-75
2022/03/12 10:00:48;;;;;;;;;;;16.30;98.20;;;;;;5055270;28;20016;-75
2022/03/12 10:03:14;;;;;;;;;;;16.30;97.70;;;;;;5053075;28;19924;-75
2022/03/12 10:05:39;;;;;;;;;;;16.40;97.10;;;;;;5040325;28;20007;-82
2022/03/12 10:08:05;;;;;;;;;;;16.30;97.30;;;;;;5034522;28;19921;-79
2022/03/12 10:10:30;;;;;;;;;;;16.20;97.70;;;;;;5033961;28;19921;-80
2022/03/12 10:12:56;;;;;;;;;;;16.60;97.20;;;;;;5035053;28;19921;-77
2022/03/12 10:15:21;;;;;;;;;;;16.80;97.50;;;;;;5034261;28;19928;-80
2022/03/12 10:17:47;;;;;;;;;;;17.30;97.00;;;;;;5035113;28;19952;-80
2022/03/12 10:20:16;;;;;;;;;;;17.50;96.10;;;;;;5043227;28;19924;-81
2022/03/12 10:22:45;;;;;;;;;;;17.00;96.50;;;;;;5053038;28;19966;-77
2022/03/12 10:25:14;;;;;;;;;;;17.40;96.70;;;;;;5054346;28;20044;-80
2022/03/12 10:27:40;;;;;;;;;;;17.30;96.10;;;;;;5054772;28;20465;-78
2022/03/12 10:30:06;;;;;;;;;;;17.70;96.60;;;;;;5046454;28;19921;-77
2022/03/12 10:32:34;;;;;;;;;;;17.70;96.50;;;;;;5035090;28;19921;-84
2022/03/12 10:35:01;;;;;;;;;;;18.20;95.60;;;;;;5035342;28;20390;-80
2022/03/12 10:37:30;;;;;;;;;;;18.20;95.00;;;;;;5038011;28;19947;-78
2022/03/12 10:40:00;;;;;;;;;;;18.20;94.90;;;;;;5046103;28;19929;-75
2022/03/12 10:42:26;;;;;;;;;;;18.10;95.30;;;;;;5041506;28;20279;-81
2022/03/12 10:44:51;;;;;;;;;;;17.70;96.10;;;;;;5050167;28;19929;-81
2022/03/12 10:47:24;;;;;;;;;;;17.80;95.30;;;;;;5050040;28;19929;-75
2022/03/12 10:49:58;;;;;;;;;;;17.50;95.10;;;;;;5050328;28;19935;-74
2022/03/12 10:52:26;;;;;;;;;;;16.90;96.60;;;;;;5047361;28;19936;-78
2022/03/12 10:54:52;;;;;;;;;;;17.00;96.30;;;;;;5041125;28;19960;-80
2022/03/12 10:57:18;;;;;;;;;;;17.90;97.00;;;;;;5027976;28;19975;-76
2022/03/12 10:59:43;;;;;;;;;;;16.70;96.90;;;;;;5030042;28;20285;-74
2022/03/12 11:02:09;;;;;;;;;;;16.70;97.10;;;;;;5029192;28;20376;-76
2022/03/12 11:04:42;;;;;;;;;;;16.80;96.90;;;;;;5028191;28;20044;-74
2022/03/12 11:07:21;;;;;;;;;;;16.90;96.70;;;;;;5029563;28;20339;-76
2022/03/12 11:09:57;;;;;;;;;;;16.80;97.10;;;;;;5035671;28;19932;-75
2022/03/12 11:12:38;;;;;;;;;;;16.90;97.50;;;;;;5045555;28;20414;-74
2022/03/12 11:15:15;;;;;;;;;;;16.90;97.30;;;;;;5037985;28;20413;-82
2022/03/12 11:17:44;;;;;;;;;;;16.60;97.30;;;;;;5029296;28;20296;-78
2022/03/12 11:20:17;;;;;;;;;;;16.40;97.50;;;;;;5042041;28;20350;-81
2022/03/12 11:23:03;;;;;;;;;;;16.10;98.10;;;;;;5050220;28;19975;-81
2022/03/12 11:25:28;;;;;;;;;;;16.00;98.40;;;;;;5034997;28;19982;-80
2022/03/12 11:27:56;;;;;;;;;;;15.90;98.30;;;;;;5039270;28;19925;-81
2022/03/12 11:30:22;;;;;;;;;;;16.90;99.50;;;;;;5045205;28;19933;-75
2022/03/12 11:33:03;;;;;;;;;;;16.00;98.40;;;;;;5033918;28;19925;-79
2022/03/12 11:35:34;;;;;;;;;;;16.00;98.30;;;;;;5041745;28;19947;-79
2022/03/12 11:38:09;;;;;;;;;;;15.80;98.30;;;;;;5044873;28;20470;-78
2022/03/12 11:40:39;;;;;;;;;;;15.50;98.90;;;;;;5014708;28;20440;-76
2022/03/12 11:43:18;;;;;;;;;;;15.40;99.30;;;;;;5039763;28;19932;-76
2022/03/12 11:45:44;;;;;;;;;;;15.40;99.60;;;;;;5047368;28;19933;-73
2022/03/12 11:48:10;;;;;;;;;;;15.10;99.20;;;;;;5042957;28;19973;-76
2022/03/12 11:50:36;;;;;;;;;;;15.10;99.40;;;;;;5039171;28;19931;-76
2022/03/12 11:53:01;;;;;;;;;;;14.90;99.90;;;;;;5052724;28;19921;-74
2022/03/12 11:55:28;;;;;;;;;;;15.10;99.90;;;;;;5043398;28;19921;-76
2022/03/12 11:57:56;;;;;;;;;;;15.10;99.90;;;;;;5044715;28;20306;-75
2022/03/12 12:00:24;;;;;;;;;;;15.20;99.40;;;;;;5052603;28;19931;-79
2022/03/12 12:02:52;;;;;;;;;;;15.30;99.40;;;;;;5039513;28;19924;-79
2022/03/12 12:05:19;;;;;;;;;;;15.80;99.00;;;;;;5033700;28;20482;-76
2022/03/12 12:07:47;;;;;;;;;;;16.40;98.60;;;;;;5034604;28;19936;-77
2022/03/12 12:10:13;;;;;;;;;;;16.00;97.70;;;;;;5040580;28;19929;-76
2022/03/12 12:12:39;;;;;;;;;;;15.90;98.00;;;;;;5035412;28;20052;-81
2022/03/12 12:15:14;;;;;;;;;;;16.20;97.90;;;;;;5036300;28;19931;-78
2022/03/12 12:17:43;;;;;;;;;;;17.00;96.60;;;;;;5029980;28;20704;-77
2022/03/12 12:20:15;;;;;;;;;;;17.30;96.40;;;;;;5035612;28;20077;-77
2022/03/12 12:22:44;;;;;;;;;;;17.90;95.40;;;;;;5035476;28;20015;-79
2022/03/12 12:25:10;;;;;;;;;;;18.70;95.20;;;;;;5037900;28;19924;-77
2022/03/12 12:27:58;;;;;;;;;;;17.90;94.80;;;;;;5041001;28;19924;-78
2022/03/12 12:30:38;;;;;;;;;;;17.70;94.40;;;;;;5038304;28;20430;-74
2022/03/12 12:33:18;;;;;;;;;;;17.00;95.90;;;;;;5027806;28;19974;-83
2022/03/12 12:35:45;;;;;;;;;;;17.10;95.60;;;;;;5043999;28;19928;-81
2022/03/12 12:38:13;;;;;;;;;;;17.00;96.30;;;;;;5036801;28;19931;-84
2022/03/12 12:40:43;;;;;;;;;;;17.00;96.50;;;;;;5032297;28;19921;-82
2022/03/12 12:43:13;;;;;;;;;;;16.60;96.50;;;;;;5030366;28;19933;-86
2022/03/12 12:45:51;;;;;;;;;;;16.10;97.20;;;;;;5026086;28;20544;-80
2022/03/12 12:48:18;;;;;;;;;;;16.40;97.70;;;;;;5037457;28;19928;-82
2022/03/12 12:51:06;;;;;;;;;;;16.60;97.60;;;;;;5031857;28;19935;-82
2022/03/12 12:53:34;;;;;;;;;;;16.70;97.20;;;;;;5030942;28;19986;-80
2022/03/12 12:56:17;;;;;;;;;;;17.30;97.80;;;;;;5038042;28;19931;-83
2022/03/12 12:58:48;;;;;;;;;;;16.10;97.70;;;;;;5037181;28;20395;-82
2022/03/12 13:01:18;;;;;;;;;;;15.60;98.10;;;;;;5039944;28;19936;-82
2022/03/12 13:03:45;;;;;;;;;;;15.40;98.70;;;;;;5042892;28;19924;-82
2022/03/12 13:06:11;;;;;;;;;;;15.70;98.80;;;;;;5033974;28;20273;-80
2022/03/12 13:08:44;;;;;;;;;;;15.30;99.40;;;;;;5037085;28;20384;-84
2022/03/12 13:11:25;;;;;;;;;;;15.10;99.90;;;;;;5034680;28;20599;-82
2022/03/12 13:13:59;;;;;;;;;;;15.00;99.90;;;;;;5040728;28;19925;-80
2022/03/12 13:16:27;;;;;;;;;;;15.10;99.20;;;;;;5038691;28;19929;-82
2022/03/12 13:18:53;;;;;;;;;;;14.90;99.90;;;;;;5034803;28;19924;-82
2022/03/12 13:21:26;;;;;;;;;;;15.00;99.90;;;;;;5038374;28;19928;-84
2022/03/12 13:23:54;;;;;;;;;;;15.00;99.50;;;;;;5040743;28;20331;-84
2022/03/12 13:26:20;;;;;;;;;;;14.90;99.90;;;;;;5035464;28;19966;-78
2022/03/12 13:28:51;;;;;;;;;;;14.90;99.90;;;;;;5047691;28;19924;-80
2022/03/12 13:31:30;;;;;;;;;;;14.90;99.70;;;;;;5034838;28;20357;-78
2022/03/12 13:34:00;;;;;;;;;;;15.00;99.90;;;;;;5043494;28;20035;-80
2022/03/12 13:36:30;;;;;;;;;;;15.50;98.90;;;;;;5034911;28;19924;-83
2022/03/12 13:38:56;;;;;;;;;;;15.70;98.70;;;;;;5041267;28;19931;-83
2022/03/12 13:41:21;;;;;;;;;;;15.80;98.50;;;;;;5038666;28;19929;-84
2022/03/12 13:43:51;;;;;;;;;;;15.70;99.30;;;;;;5042799;28;19924;-86
2022/03/12 13:46:20;;;;;;;;;;;15.70;99.20;;;;;;5039646;28;20441;-82
2022/03/12 13:48:56;;;;;;;;;;;16.70;97.80;;;;;;5045255;28;19925;-79
2022/03/12 13:51:22;;;;;;;;;;;15.70;97.60;;;;;;5041223;28;19963;-83
2022/03/12 13:53:55;;;;;;;;;;;15.50;97.90;;;;;;5042578;28;20327;-86
2022/03/12 13:56:33;;;;;;;;;;;15.90;99.10;;;;;;5038968;28;19976;-83
2022/03/12 13:59:03;;;;;;;;;;;17.10;98.60;;;;;;5044878;28;19987;-83
2022/03/12 14:01:36;;;;;;;;;;;17.30;98.00;;;;;;5041970;28;19924;-76
2022/03/12 14:04:03;;;;;;;;;;;15.50;99.20;;;;;;5042473;28;19990;-74
2022/03/12 14:06:32;;;;;;;;;;;15.50;99.90;;;;;;5041012;28;19995;-76
2022/03/12 14:09:03;;;;;;;;;;;15.40;98.60;;;;;;5037735;28;19932;-73
2022/03/12 14:11:39;;;;;;;;;;;15.50;98.50;;;;;;5042554;28;19947;-73
2022/03/12 14:14:07;;;;;;;;;;;15.60;97.80;;;;;;5041163;28;19929;-73
2022/03/12 14:16:38;;;;;;;;;;;15.50;97.30;;;;;;5041063;28;19935;-72
2022/03/12 14:19:05;;;;;;;;;;;15.50;98.00;;;;;;5040976;28;19920;-71
2022/03/12 14:21:35;;;;;;;;;;;15.80;98.50;;;;;;5037003;28;20254;-69
2022/03/12 14:24:12;;;;;;;;;;;15.50;98.20;;;;;;5037675;28;19932;-69
2022/03/12 14:26:43;;;;;;;;;;;15.40;97.80;;;;;;5040711;28;19925;-76